This is the latest recevied weather packets stored in our database for station/object DC1NF-7. If no packets are shown the sender has not sent any weather packets the latest 10 day(s).
| Time | Temp. | Humidity | Pressure | Rain* | Wind** | Luminosity | Snow |
|---|---|---|---|---|---|---|---|
| 1777763750 | 10° C | 77% | 1016.8 hPa | 0 mm | - | 0 W/m² | - |
| 1777763152 | 10.56° C | 76% | 1016.9 hPa | 0 mm | - | 0 W/m² | - |
| 1777762552 | 10.56° C | 74% | 1017 hPa | 0 mm | - | 0 W/m² | - |
| 1777761941 | 11.11° C | 73% | 1016.9 hPa | 0 mm | - | 0 W/m² | - |
| 1777761337 | 11.11° C | 72% | 1017 hPa | 0 mm | - | 0 W/m² | - |
| 1777760733 | 12.22° C | 67% | 1017.1 hPa | 0 mm | - | 0 W/m² | - |
| 1777760131 | 12.22° C | 66% | 1017.2 hPa | 0 mm | - | 0 W/m² | - |
| 1777759524 | 12.22° C | 66% | 1017.1 hPa | 0 mm | - | 0 W/m² | - |
| 1777758923 | 12.22° C | 65% | 1017.1 hPa | 0 mm | - | 0 W/m² | - |
| 1777758316 | 12.78° C | 65% | 1017.2 hPa | 0 mm | - | 0 W/m² | - |
| 1777757776 | 12.78° C | 65% | 1017.1 hPa | 0 mm | - | 0 W/m² | - |
| 1777757170 | 13.33° C | 62% | 1017.2 hPa | 0 mm | - | 0 W/m² | - |
| 1777756566 | 13.89° C | 62% | 1017.2 hPa | 0 mm | - | 0 W/m² | - |
| 1777755962 | 13.89° C | 62% | 1017.2 hPa | 0 mm | - | 0 W/m² | - |
| 1777755358 | 13.89° C | 64% | 1017.3 hPa | 0 mm | - | 0 W/m² | - |
| 1777754757 | 14.44° C | 61% | 1017.2 hPa | 0 mm | - | 0 W/m² | - |
| 1777754153 | 15° C | 59% | 1017.3 hPa | 0 mm | - | 0 W/m² | - |
| 1777753550 | 15° C | 59% | 1017.4 hPa | 0 mm | - | 0 W/m² | - |
| 1777752944 | 15° C | 59% | 1017.4 hPa | 0 mm | - | 0 W/m² | - |
| 1777752341 | 16.11° C | 57% | 1017.4 hPa | 0 mm | - | 0 W/m² | - |
| 1777751738 | 16.67° C | 53% | 1017.5 hPa | 0 mm | - | 0 W/m² | - |
| 1777751134 | 17.22° C | 50% | 1017.4 hPa | 0 mm | - | 0 W/m² | - |
| 1777750534 | 17.78° C | 49% | 1017.4 hPa | 0 mm | - | 0 W/m² | - |
| 1777749926 | 17.78° C | 50% | 1017.3 hPa | 0 mm | - | 0 W/m² | - |
| 1777749322 | 18.33° C | 48% | 1017.3 hPa | 0 mm | - | 0 W/m² | - |
* Rain latest hour (hover to see other rain measurements)
** Current wind speed in m/s (hover to see current wind gust speed)